createdAt,value
2023-03-05T00:00:49.361Z,99426.94
2023-03-05T00:03:16.266Z,99424.25
2023-03-05T00:05:43.024Z,99423.41
2023-03-05T00:08:11.342Z,99426.09
2023-03-05T00:10:38.150Z,99424.47
2023-03-05T00:13:05.035Z,99426.31
2023-03-05T00:15:31.841Z,99415.78
2023-03-05T00:17:59.271Z,99416.81
2023-03-05T00:20:26.093Z,99417.84
2023-03-05T00:22:53.002Z,99422.41
2023-03-05T00:25:21.149Z,99412.88
2023-03-05T00:27:47.952Z,99398.41
2023-03-05T00:30:15.117Z,99399.44
2023-03-05T00:32:41.932Z,99409.38
2023-03-05T00:35:09.601Z,99412.09
2023-03-05T00:37:36.492Z,99413.34
2023-03-05T00:40:04.325Z,99413.34
2023-03-05T00:42:38.519Z,99422.22
2023-03-05T00:45:06.751Z,99421.63
2023-03-05T00:47:33.745Z,99412.50
2023-03-05T00:50:00.938Z,99409.22
2023-03-05T00:52:27.829Z,99413.75
2023-03-05T00:54:54.687Z,99420.78
2023-03-05T00:57:21.846Z,99418.31
2023-03-05T00:59:50.048Z,99419.34
2023-03-05T01:02:16.925Z,99413.97
2023-03-05T01:04:47.072Z,99405.06
2023-03-05T01:07:14.244Z,99399.09
2023-03-05T01:09:40.994Z,99398.25
2023-03-05T01:12:08.528Z,99403.63
2023-03-05T01:14:35.970Z,99400.13
2023-03-05T01:17:04.556Z,99396.41
2023-03-05T01:19:31.528Z,99394.13
2023-03-05T01:21:59.265Z,99392.28
2023-03-05T01:24:26.429Z,99385.25
2023-03-05T01:26:53.282Z,99372.81
2023-03-05T01:29:20.108Z,99372.81
2023-03-05T01:31:46.908Z,99368.47
2023-03-05T01:34:16.006Z,99365.19
2023-03-05T01:36:42.836Z,99363.50
2023-03-05T01:39:10.117Z,99356.28
2023-03-05T01:41:37.014Z,99351.72
2023-03-05T01:44:05.184Z,99361.66
2023-03-05T01:46:36.922Z,99354.00
2023-03-05T01:49:14.214Z,99353.78
2023-03-05T01:51:48.706Z,99350.50
2023-03-05T01:54:19.389Z,99346.97
2023-03-05T01:56:48.612Z,99346.97
2023-03-05T01:59:16.625Z,99339.13
2023-03-05T02:01:46.298Z,99336.22
2023-03-05T02:04:16.993Z,99328.34
2023-03-05T02:06:47.071Z,99325.88
2023-03-05T02:09:14.100Z,99325.88
2023-03-05T02:11:41.824Z,99318.66
2023-03-05T02:14:10.354Z,99317.00
2023-03-05T02:16:38.492Z,99315.31
2023-03-05T02:19:08.061Z,99311.00
2023-03-05T02:21:42.284Z,99321.16
2023-03-05T02:24:12.844Z,99319.28
2023-03-05T02:26:40.489Z,99319.50
2023-03-05T02:29:10.410Z,99312.03
2023-03-05T02:31:39.069Z,99305.03
2023-03-05T02:34:06.435Z,99302.53
2023-03-05T02:36:34.163Z,99300.06
2023-03-05T02:39:03.640Z,99292.59
2023-03-05T02:41:30.512Z,99295.50
2023-03-05T02:43:58.596Z,99289.31
2023-03-05T02:46:25.837Z,99285.78
2023-03-05T02:48:52.753Z,99282.28
2023-03-05T02:51:19.661Z,99283.09
2023-03-05T02:53:47.362Z,99282.28
2023-03-05T02:56:17.389Z,99283.09
2023-03-05T02:58:44.320Z,99278.75
2023-03-05T03:01:11.534Z,99281.66
2023-03-05T03:03:38.556Z,99272.53
2023-03-05T03:06:09.443Z,99263.66
2023-03-05T03:08:36.335Z,99270.06
2023-03-05T03:11:07.717Z,99266.56
2023-03-05T03:13:35.966Z,99260.56
2023-03-05T03:16:04.247Z,99262.22
2023-03-05T03:18:31.169Z,99257.88
2023-03-05T03:20:58.250Z,99258.69
2023-03-05T03:23:26.013Z,99256.84
2023-03-05T03:25:52.977Z,99254.16
2023-03-05T03:28:19.992Z,99244.41
2023-03-05T03:30:48.313Z,99240.09
2023-03-05T03:33:15.160Z,99251.69
2023-03-05T03:35:42.121Z,99247.09
2023-03-05T03:38:08.968Z,99242.78
2023-03-05T03:40:37.350Z,99233.06
2023-03-05T03:43:04.224Z,99238.66
2023-03-05T03:45:31.132Z,99239.50
2023-03-05T03:47:59.629Z,99229.75
2023-03-05T03:50:26.526Z,99228.13
2023-03-05T03:52:53.311Z,99231.84
2023-03-05T03:55:20.185Z,99233.50
2023-03-05T03:57:47.030Z,99237.22
2023-03-05T04:00:14.417Z,99236.19
2023-03-05T04:02:43.215Z,99233.50
2023-03-05T04:05:11.891Z,99233.69
2023-03-05T04:07:38.721Z,99237.22
2023-03-05T04:10:06.297Z,99228.53
2023-03-05T04:12:33.160Z,99227.53
2023-03-05T04:14:59.985Z,99230.22
2023-03-05T04:17:26.845Z,99225.25
2023-03-05T04:19:53.660Z,99222.34
2023-03-05T04:22:21.828Z,99227.72
2023-03-05T04:24:48.617Z,99218.63
2023-03-05T04:27:15.487Z,99212.41
2023-03-05T04:29:42.266Z,99216.13
2023-03-05T04:32:09.207Z,99214.50
2023-03-05T04:34:37.531Z,99208.28
2023-03-05T04:37:04.544Z,99206.44
2023-03-05T04:39:32.868Z,99207.47
2023-03-05T04:41:59.716Z,99202.09
2023-03-05T04:44:26.540Z,99205.81
2023-03-05T04:46:53.335Z,99196.72
2023-03-05T04:49:20.126Z,99194.25
2023-03-05T04:51:47.012Z,99192.34
2023-03-05T04:54:13.795Z,99188.88
2023-03-05T04:56:42.032Z,99191.56
2023-03-05T04:59:08.855Z,99183.50
2023-03-05T05:01:35.746Z,99185.53
2023-03-05T05:04:02.792Z,99186.56
2023-03-05T05:06:29.748Z,99187.63
2023-03-05T05:08:56.585Z,99183.88
2023-03-05T05:11:23.552Z,99185.72
2023-03-05T05:13:51.764Z,99185.53
2023-03-05T05:16:18.606Z,99179.34
2023-03-05T05:18:45.520Z,99186.78
2023-03-05T05:21:14.623Z,99181.41
2023-03-05T05:23:41.764Z,99181.41
2023-03-05T05:26:14.334Z,99181.41
2023-03-05T05:28:43.510Z,99183.03
2023-03-05T05:31:13.402Z,99182.25
2023-03-05T05:33:40.677Z,99185.13
2023-03-05T05:36:09.213Z,99176.44
2023-03-05T05:38:36.164Z,99182.66
2023-03-05T05:41:05.029Z,99183.50
2023-03-05T05:43:32.066Z,99176.25
2023-03-05T05:46:00.530Z,99179.75
2023-03-05T05:48:29.848Z,99177.06
2023-03-05T05:50:56.796Z,99179.75
2023-03-05T05:53:24.223Z,99183.50
2023-03-05T05:55:51.524Z,99172.75
2023-03-05T05:58:18.454Z,99170.84
2023-03-05T06:00:45.284Z,99171.91
2023-03-05T06:03:12.136Z,99176.44
2023-03-05T06:05:41.427Z,99173.97
2023-03-05T06:08:08.542Z,99169.63
2023-03-05T06:10:35.468Z,99176.44
2023-03-05T06:13:02.330Z,99172.28
2023-03-05T06:15:29.164Z,99171.03
2023-03-05T06:17:55.990Z,99164.41
2023-03-05T06:20:23.234Z,99169.31
2023-03-05T06:22:51.521Z,99174.06
2023-03-05T06:25:18.475Z,99172.16
2023-03-05T06:27:45.366Z,99167.56
2023-03-05T06:30:13.343Z,99166.22
2023-03-05T06:32:40.164Z,99163.25
2023-03-05T06:35:07.909Z,99165.69
2023-03-05T06:37:34.698Z,99163.50
2023-03-05T06:40:03.058Z,99155.81
2023-03-05T06:42:29.999Z,99157.16
2023-03-05T06:44:56.848Z,99156.03
2023-03-05T06:47:23.678Z,99146.63
2023-03-05T06:49:50.537Z,99150.66
2023-03-05T06:52:17.296Z,99151.78
2023-03-05T06:54:44.076Z,99147.94
2023-03-05T06:57:13.635Z,99141.22
2023-03-05T06:59:41.635Z,99142.81
2023-03-05T07:02:10.834Z,99138.97
2023-03-05T07:04:37.700Z,99139.72
2023-03-05T07:07:04.563Z,99143.97
2023-03-05T07:09:31.498Z,99134.63
2023-03-05T07:11:58.519Z,99129.66
2023-03-05T07:14:26.702Z,99136.25
2023-03-05T07:16:53.510Z,99133.69
2023-03-05T07:19:20.399Z,99134.03
2023-03-05T07:21:47.574Z,99138.75
2023-03-05T07:24:14.606Z,99130.78
2023-03-05T07:26:41.493Z,99131.97
2023-03-05T07:29:08.368Z,99129.66
2023-03-05T07:31:36.962Z,99130.00
2023-03-05T07:34:04.155Z,99125.78
2023-03-05T07:36:31.482Z,99130.75
2023-03-05T07:38:58.391Z,99126.56
2023-03-05T07:41:25.330Z,99129.84
2023-03-05T07:43:54.716Z,99125.84
2023-03-05T07:46:25.082Z,99119.41
2023-03-05T07:48:57.125Z,99126.22
2023-03-05T07:51:25.756Z,99120.59
2023-03-05T07:53:55.194Z,99120.34
2023-03-05T07:56:23.941Z,99113.69
2023-03-05T07:58:50.954Z,99121.28
2023-03-05T08:01:18.140Z,99115.66
2023-03-05T08:03:45.065Z,99116.28
2023-03-05T08:06:13.311Z,99119.53
2023-03-05T08:08:40.166Z,99117.44
2023-03-05T08:11:09.256Z,99119.91
2023-03-05T08:13:36.862Z,99114.03
2023-03-05T08:16:07.920Z,99120.84
2023-03-05T08:18:35.747Z,99119.56
2023-03-05T08:21:02.761Z,99117.44
2023-03-05T08:23:31.733Z,99118.28
2023-03-05T08:25:58.630Z,99119.91
2023-03-05T08:28:25.604Z,99120.47
2023-03-05T08:30:52.538Z,99116.75
2023-03-05T08:33:19.461Z,99119.19
2023-03-05T08:35:46.608Z,99121.66
2023-03-05T08:38:13.641Z,99115.22
2023-03-05T08:40:43.288Z,99114.16
2023-03-05T08:43:10.205Z,99114.97
2023-03-05T08:45:38.988Z,99116.63
2023-03-05T08:48:06.544Z,99115.34
2023-03-05T08:50:33.308Z,99123.44
2023-03-05T08:53:00.202Z,99119.69
2023-03-05T08:55:27.090Z,99113.22
2023-03-05T08:57:55.337Z,99115.91
2023-03-05T09:00:22.562Z,99113.22
2023-03-05T09:02:49.443Z,99117.56
2023-03-05T09:05:16.565Z,99110.03
2023-03-05T09:07:43.396Z,99110.88
2023-03-05T09:10:13.730Z,99109.81
2023-03-05T09:12:41.185Z,99111.44
2023-03-05T09:15:11.435Z,99108.19
2023-03-05T09:17:38.864Z,99101.72
2023-03-05T09:20:07.166Z,99101.72
2023-03-05T09:22:33.996Z,99110.66
2023-03-05T09:25:00.768Z,99112.28
2023-03-05T09:27:27.646Z,99111.22
2023-03-05T09:29:54.500Z,99103.94
2023-03-05T09:32:22.738Z,99107.44
2023-03-05T09:34:49.564Z,99103.72
2023-03-05T09:37:16.405Z,99099.13
2023-03-05T09:39:43.221Z,99098.88
2023-03-05T09:42:43.318Z,99099.16
2023-03-05T09:45:20.399Z,99095.97
2023-03-05T09:47:56.971Z,99093.84
2023-03-05T09:50:34.941Z,99086.47
2023-03-05T09:53:07.821Z,99086.56
2023-03-05T09:55:40.549Z,99087.16
2023-03-05T09:58:13.191Z,99087.72
2023-03-05T10:00:45.193Z,99084.22
2023-03-05T10:03:20.034Z,99083.16
2023-03-05T10:05:56.358Z,99082.31
2023-03-05T10:08:28.608Z,99085.84
2023-03-05T10:10:55.894Z,99089.41
2023-03-05T10:13:25.945Z,99078.00
2023-03-05T10:16:05.249Z,99077.75
2023-03-05T10:18:38.437Z,99072.34
2023-03-05T10:21:13.511Z,99071.66
2023-03-05T10:24:00.490Z,99073.19
2023-03-05T10:26:38.985Z,99062.50
2023-03-05T10:29:19.147Z,99058.28
2023-03-05T10:32:06.960Z,99060.47
2023-03-05T10:34:59.815Z,99058.38
2023-03-05T10:38:03.603Z,99056.75
2023-03-05T10:40:36.033Z,99053.44
2023-03-05T10:43:13.648Z,99048.63
2023-03-05T10:45:43.612Z,99044.88
2023-03-05T10:48:21.277Z,99047.56
2023-03-05T10:50:53.744Z,99047.56
2023-03-05T10:53:27.629Z,99034.84
2023-03-05T10:55:56.218Z,99036.28
2023-03-05T10:58:24.810Z,99044.97
2023-03-05T11:00:59.393Z,99037.94
2023-03-05T11:03:26.350Z,99033.91
2023-03-05T11:06:01.168Z,99033.44
2023-03-05T11:08:32.317Z,99026.97
2023-03-05T11:11:15.601Z,99022.97
2023-03-05T11:13:55.423Z,99016.72
2023-03-05T11:16:25.364Z,99011.59
2023-03-05T11:19:17.542Z,99004.53
2023-03-05T11:21:46.980Z,99008.28
2023-03-05T11:24:15.801Z,99014.28
2023-03-05T11:26:48.688Z,99010.53
2023-03-05T11:29:26.166Z,99002.97
2023-03-05T11:31:53.720Z,98999.22
2023-03-05T11:34:30.451Z,98998.66
2023-03-05T11:37:04.609Z,98995.94
2023-03-05T11:39:34.718Z,98995.13
2023-03-05T11:42:05.308Z,98989.97
2023-03-05T11:44:35.517Z,98985.63
2023-03-05T11:47:13.738Z,98985.84
2023-03-05T11:49:45.478Z,98986.69
2023-03-05T11:52:18.267Z,98988.56
2023-03-05T11:54:54.020Z,98988.56
2023-03-05T11:57:24.011Z,98986.13
2023-03-05T11:59:52.893Z,98981.75
2023-03-05T12:02:22.456Z,98982.59
2023-03-05T12:04:50.541Z,98986.13
2023-03-05T12:07:24.676Z,98975.63
2023-03-05T12:09:53.369Z,98969.41
2023-03-05T12:12:36.126Z,98967.28
2023-03-05T12:15:41.814Z,98959.50
2023-03-05T12:18:24.285Z,98955.97
2023-03-05T12:21:02.023Z,98948.94
2023-03-05T12:23:45.198Z,98948.69
2023-03-05T12:26:12.160Z,98945.69
2023-03-05T12:28:57.617Z,98934.63
2023-03-05T12:31:45.456Z,98931.09
2023-03-05T12:34:50.163Z,98934.88
2023-03-05T12:37:52.712Z,98925.38
2023-03-05T12:40:25.734Z,98928.31
2023-03-05T12:42:57.928Z,98920.44
2023-03-05T12:45:41.619Z,98916.66
2023-03-05T12:48:43.784Z,98913.16
2023-03-05T12:51:27.192Z,98901.75
2023-03-05T12:53:54.126Z,98899.31
2023-03-05T12:56:30.077Z,98895.81
2023-03-05T12:59:01.280Z,98892.03
2023-03-05T13:01:36.515Z,98883.34
2023-03-05T13:04:10.852Z,98889.56
2023-03-05T13:06:39.217Z,98881.47
2023-03-05T13:09:15.874Z,98885.00
2023-03-05T13:11:48.031Z,98876.28
2023-03-05T13:14:30.135Z,98879.81
2023-03-05T13:16:57.543Z,98876.53
2023-03-05T13:19:24.783Z,98874.91
2023-03-05T13:21:59.426Z,98874.06
2023-03-05T13:24:27.130Z,98868.91
2023-03-05T13:26:56.004Z,98866.22
2023-03-05T13:29:28.256Z,98862.13
2023-03-05T13:31:57.489Z,98855.66
2023-03-05T13:34:34.761Z,98853.44
2023-03-05T13:37:17.522Z,98847.22
2023-03-05T13:39:49.818Z,98853.44
2023-03-05T13:42:20.108Z,98842.06
2023-03-05T13:44:54.391Z,98844.75
2023-03-05T13:47:22.923Z,98845.81
2023-03-05T13:49:55.943Z,98839.59
2023-03-05T13:52:27.001Z,98837.16
2023-03-05T13:54:53.969Z,98831.75
2023-03-05T13:57:37.395Z,98832.78
2023-03-05T14:00:05.870Z,98825.75
2023-03-05T14:02:33.639Z,98822.22
2023-03-05T14:05:00.628Z,98819.81
2023-03-05T14:07:33.565Z,98821.66
2023-03-05T14:10:00.833Z,98820.03
2023-03-05T14:12:33.553Z,98818.38
2023-03-05T14:15:03.546Z,98820.28
2023-03-05T14:17:40.651Z,98815.91
2023-03-05T14:20:19.726Z,98814.25
2023-03-05T14:22:50.462Z,98812.63
2023-03-05T14:25:34.055Z,98810.16
2023-03-05T14:28:01.661Z,98806.31
2023-03-05T14:30:30.988Z,98805.00
2023-03-05T14:32:59.644Z,98799.13
2023-03-05T14:35:28.431Z,98801.81
2023-03-05T14:37:58.388Z,98796.41
2023-03-05T14:40:30.149Z,98791.50
2023-03-05T14:42:58.685Z,98790.47
2023-03-05T14:45:27.156Z,98787.75
2023-03-05T14:47:59.190Z,98777.75
2023-03-05T14:50:29.241Z,98784.00
2023-03-05T14:52:58.637Z,98776.97
2023-03-05T14:55:27.546Z,98770.72
2023-03-05T14:58:01.185Z,98765.31
2023-03-05T15:00:28.717Z,98755.59
2023-03-05T15:02:58.123Z,98756.16
2023-03-05T15:05:25.509Z,98750.75
2023-03-05T15:07:52.592Z,98757.22
2023-03-05T15:10:23.280Z,98746.66
2023-03-05T15:12:51.303Z,98745.03
2023-03-05T15:15:22.613Z,98732.59
2023-03-05T15:17:52.204Z,98737.41
2023-03-05T15:20:23.639Z,98731.47
2023-03-05T15:22:50.489Z,98736.03
2023-03-05T15:25:18.526Z,98727.94
2023-03-05T15:27:45.415Z,98718.19
2023-03-05T15:30:21.336Z,98709.84
2023-03-05T15:32:48.269Z,98708.19
2023-03-05T15:35:15.169Z,98708.44
2023-03-05T15:37:43.341Z,98701.16
2023-03-05T15:40:11.394Z,98697.41
2023-03-05T15:42:38.689Z,98698.72
2023-03-05T15:45:06.683Z,98694.94
2023-03-05T15:47:33.685Z,98691.69
2023-03-05T15:50:01.665Z,98691.44
2023-03-05T15:52:28.496Z,98686.28
2023-03-05T15:54:56.685Z,98685.69
2023-03-05T15:57:23.737Z,98685.44
2023-03-05T15:59:50.521Z,98679.50
2023-03-05T16:02:18.722Z,98678.41
2023-03-05T16:04:45.835Z,98673.03
2023-03-05T16:07:15.249Z,98677.59
2023-03-05T16:09:47.084Z,98675.97
2023-03-05T16:12:20.206Z,98668.09
2023-03-05T16:14:50.836Z,98659.44
2023-03-05T16:17:19.876Z,98670.25
2023-03-05T16:19:49.390Z,98669.41
2023-03-05T16:22:16.393Z,98666.97
2023-03-05T16:24:43.146Z,98663.69
2023-03-05T16:27:10.657Z,98655.59
2023-03-05T16:29:38.825Z,98655.59
2023-03-05T16:32:06.355Z,98653.69
2023-03-05T16:34:34.521Z,98644.81
2023-03-05T16:37:04.442Z,98640.47
2023-03-05T16:39:31.516Z,98644.22
2023-03-05T16:41:58.527Z,98638.81
2023-03-05T16:44:25.398Z,98644.50
2023-03-05T16:46:54.008Z,98639.66
2023-03-05T16:49:21.169Z,98637.50
2023-03-05T16:51:48.259Z,98631.63
2023-03-05T16:54:15.130Z,98630.91
2023-03-05T16:56:42.129Z,98628.19
2023-03-05T16:59:08.986Z,98626.06
2023-03-05T17:01:35.866Z,98626.41
2023-03-05T17:04:04.304Z,98626.16
2023-03-05T17:06:32.632Z,98623.69
2023-03-05T17:09:00.110Z,98623.94
2023-03-05T17:11:27.472Z,98621.00
2023-03-05T17:13:54.390Z,98619.09
2023-03-05T17:16:22.542Z,98613.94
2023-03-05T17:18:49.521Z,98621.25
2023-03-05T17:21:17.764Z,98620.66
2023-03-05T17:23:44.707Z,98621.25
2023-03-05T17:26:15.070Z,98615.59
2023-03-05T17:28:42.403Z,98616.97
2023-03-05T17:31:09.195Z,98621.31
2023-03-05T17:33:37.493Z,98617.78
2023-03-05T17:36:05.481Z,98621.31
2023-03-05T17:38:33.743Z,98623.19
2023-03-05T17:41:00.606Z,98619.69
2023-03-05T17:43:27.925Z,98626.72
2023-03-05T17:45:59.600Z,98621.31
2023-03-05T17:48:26.837Z,98613.22
2023-03-05T17:50:53.885Z,98622.13
2023-03-05T17:53:21.001Z,98625.88
2023-03-05T17:55:49.230Z,98616.97
2023-03-05T17:58:16.083Z,98614.28
2023-03-05T18:00:42.955Z,98617.78
2023-03-05T18:03:09.887Z,98618.06
2023-03-05T18:05:37.238Z,98619.09
2023-03-05T18:08:04.555Z,98615.34
2023-03-05T18:10:32.068Z,98615.34
2023-03-05T18:13:00.339Z,98611.81
2023-03-05T18:15:28.776Z,98603.72
2023-03-05T18:17:56.462Z,98606.44
2023-03-05T18:20:27.725Z,98598.56
2023-03-05T18:22:56.948Z,98596.94
2023-03-05T18:25:30.651Z,98596.94
2023-03-05T18:27:58.315Z,98601.28
2023-03-05T18:30:27.124Z,98595.03
2023-03-05T18:32:53.957Z,98599.41
2023-03-05T18:35:20.978Z,98593.16
2023-03-05T18:37:47.930Z,98593.16
2023-03-05T18:40:19.209Z,98588.00
2023-03-05T18:42:46.548Z,98593.41
2023-03-05T18:45:14.615Z,98586.38
2023-03-05T18:47:43.245Z,98585.31
2023-03-05T18:50:14.725Z,98583.44
2023-03-05T18:52:42.178Z,98581.81
2023-03-05T18:55:14.675Z,98582.84
2023-03-05T18:57:41.576Z,98573.97
2023-03-05T19:00:10.595Z,98570.44
2023-03-05T19:02:37.450Z,98572.06
2023-03-05T19:05:05.979Z,98560.47
2023-03-05T19:07:35.096Z,98560.47
2023-03-05T19:10:07.303Z,98559.63
2023-03-05T19:12:38.296Z,98565.03
2023-03-05T19:15:06.621Z,98561.50
2023-03-05T19:17:33.445Z,98557.19
2023-03-05T19:20:00.301Z,98557.19
2023-03-05T19:22:29.537Z,98556.63
2023-03-05T19:24:56.444Z,98550.41
2023-03-05T19:27:23.301Z,98555.78
2023-03-05T19:29:50.683Z,98558.50
2023-03-05T19:32:17.992Z,98554.16
2023-03-05T19:34:45.267Z,98553.09
2023-03-05T19:37:12.551Z,98554.16
2023-03-05T19:39:41.683Z,98554.97
2023-03-05T19:42:08.809Z,98548.78
2023-03-05T19:44:36.065Z,98547.16
2023-03-05T19:47:03.065Z,98541.75
2023-03-05T19:49:30.164Z,98544.44
2023-03-05T19:51:57.154Z,98544.44
2023-03-05T19:54:24.513Z,98539.84
2023-03-05T19:56:54.940Z,98541.75
2023-03-05T19:59:23.020Z,98537.97
2023-03-05T20:01:50.127Z,98540.66
2023-03-05T20:04:18.744Z,98539.03
2023-03-05T20:06:45.894Z,98533.66
2023-03-05T20:09:13.296Z,98533.66
2023-03-05T20:11:40.479Z,98528.25
2023-03-05T20:14:09.353Z,98533.66
2023-03-05T20:16:38.199Z,98523.88
2023-03-05T20:19:06.691Z,98526.59
2023-03-05T20:21:36.149Z,98522.25
2023-03-05T20:24:05.130Z,98521.19
2023-03-05T20:26:34.731Z,98518.50
2023-03-05T20:29:03.107Z,98518.72
2023-03-05T20:31:35.290Z,98512.53
2023-03-05T20:34:02.545Z,98509.84
2023-03-05T20:36:29.485Z,98514.66
2023-03-05T20:38:56.316Z,98511.97
2023-03-05T20:41:23.197Z,98514.94
2023-03-05T20:43:51.269Z,98505.41
2023-03-05T20:46:19.905Z,98506.97
2023-03-05T20:48:50.384Z,98503.72
2023-03-05T20:51:19.157Z,98507.16
2023-03-05T20:53:46.040Z,98496.28
2023-03-05T20:56:12.928Z,98500.31
2023-03-05T20:58:39.800Z,98496.72
2023-03-05T21:01:06.735Z,98492.88
2023-03-05T21:03:33.813Z,98493.38
2023-03-05T21:06:04.144Z,98494.09
2023-03-05T21:08:31.102Z,98481.66
2023-03-05T21:10:58.961Z,98483.78
2023-03-05T21:13:26.030Z,98483.47
2023-03-05T21:15:52.902Z,98473.97
2023-03-05T21:18:19.923Z,98478.22
2023-03-05T21:20:46.797Z,98474.13
2023-03-05T21:23:15.011Z,98469.25
2023-03-05T21:25:41.888Z,98470.06
2023-03-05T21:28:12.225Z,98471.59
2023-03-05T21:30:42.053Z,98462.72
2023-03-05T21:33:11.698Z,98462.63
2023-03-05T21:35:39.568Z,98456.19
2023-03-05T21:38:08.107Z,98452.91
2023-03-05T21:40:39.874Z,98450.97
2023-03-05T21:43:06.707Z,98449.81
2023-03-05T21:45:33.649Z,98448.66
2023-03-05T21:48:00.493Z,98441.31
2023-03-05T21:50:27.469Z,98439.34
2023-03-05T21:52:54.595Z,98432.78
2023-03-05T21:55:24.122Z,98427.31
2023-03-05T21:57:52.308Z,98425.94
2023-03-05T22:00:22.698Z,98429.13
2023-03-05T22:02:49.820Z,98423.13
2023-03-05T22:05:16.715Z,98419.84
2023-03-05T22:07:44.077Z,98415.78
2023-03-05T22:10:13.329Z,98411.44
2023-03-05T22:12:53.286Z,98412.53
2023-03-05T22:15:22.234Z,98399.53
2023-03-05T22:17:49.113Z,98395.75
2023-03-05T22:20:16.069Z,98397.63
2023-03-05T22:22:42.867Z,98393.06
2023-03-05T22:25:12.533Z,98390.38
2023-03-05T22:27:39.803Z,98382.78
2023-03-05T22:30:07.995Z,98373.91
2023-03-05T22:32:37.025Z,98380.06
2023-03-05T22:35:05.766Z,98378.69
2023-03-05T22:37:32.845Z,98375.19
2023-03-05T22:39:59.645Z,98368.16
2023-03-05T22:42:26.672Z,98372.75
2023-03-05T22:44:57.013Z,98359.75
2023-03-05T22:47:24.094Z,98351.69
2023-03-05T22:49:52.392Z,98354.59
2023-03-05T22:52:19.726Z,98348.66
2023-03-05T22:54:46.646Z,98352.41
2023-03-05T22:57:13.539Z,98338.38
2023-03-05T22:59:40.341Z,98336.75
2023-03-05T23:02:07.266Z,98343.16
2023-03-05T23:04:48.942Z,98326.22
2023-03-05T23:07:19.626Z,98329.16
2023-03-05T23:09:52.060Z,98325.63
2023-03-05T23:12:19.098Z,98333.16
2023-03-05T23:14:45.937Z,98324.47
2023-03-05T23:17:12.920Z,98312.41
2023-03-05T23:19:40.147Z,98315.19
2023-03-05T23:22:08.607Z,98323.34
2023-03-05T23:24:37.191Z,98332.00
2023-03-05T23:27:06.901Z,98320.75
2023-03-05T23:29:51.695Z,98328.09
2023-03-05T23:32:18.591Z,98330.03
2023-03-05T23:34:45.419Z,98330.63
2023-03-05T23:37:12.266Z,98328.47
2023-03-05T23:39:40.490Z,98324.22
2023-03-05T23:42:07.390Z,98315.69
2023-03-05T23:44:34.184Z,98317.31
2023-03-05T23:47:00.991Z,98316.28
2023-03-05T23:49:27.818Z,98316.28
2023-03-05T23:51:54.667Z,98318.16
2023-03-05T23:54:21.510Z,98322.72
2023-03-05T23:56:49.705Z,98321.09
2023-03-05T23:59:16.461Z,98324.84
